Currently 59°F in French Valley, California, USA
59°F
59°F / 48°F
10 mph SW
0.00"
Thursday, March 23, 2017 11:28 AM PDT

French Valley, California Weather Summary
Last 36 Hours

Temperature Winds Hourly Humidity Dewpoint
Time Report Norm Report Norm Max Gusts Precip. Rpt. Norm Rpt. Norm Pressure
1Thu 11:28 AM  59.0°F  64°F  10 mph SW  4 mph  9 mph  0.00"  66%  59%  47°F  48°F  30.23"
2Thu 11:21 AM  59.2°F  63°F  4 mph SW  3 mph  9 mph  ----  67%  60%  48°F  49°F  30.22"
Thu 11:00 AM  58.6°F  62°F  4 mph SW  4 mph  12 mph  0.00"  69%  63%  48°F  49°F  30.23"
Thu 10:00 AM  55.8°F  58°F  7 mph S  3 mph  10 mph  0.00"  80%  72%  50°F  49°F  30.19"
Thu 09:00 AM  53.6°F  54°F  5 mph SE  2 mph  11 mph  0.00"  88%  82%  50°F  49°F  30.18"
Thu 08:00 AM  50.7°F  51°F  1 mph SE  1 mph  8 mph  0.00"  97%  89%  50°F  47°F  30.16"
Thu 07:00 AM  50.5°F  49°F  6 mph S  1 mph  10 mph  0.00"  97%  90%  50°F  46°F  30.13"
Thu 06:00 AM  50.6°F  49°F  5 mph S  1 mph  10 mph  0.00"  97%  90%  50°F  46°F  30.12"
Thu 05:00 AM  50.1°F  50°F  4 mph SE  1 mph  7 mph  0.00"  98%  89%  49°F  47°F  30.11"
Thu 04:00 AM  48.6°F  50°F  4 mph SE  1 mph  10 mph  0.00"  98%  89%  48°F  47°F  30.10"
3Thu 03:51 AM  48.4°F  50°F  5 mph SE  1 mph  8 mph  ----  98%  89%  48°F  47°F  30.10"
Thu 03:00 AM  49.7°F  51°F  6 mph SE  1 mph  9 mph  0.00"  98%  88%  49°F  47°F  30.10"
Thu 02:00 AM  50.2°F  51°F  7 mph SE  1 mph  9 mph  0.00"  97%  87%  49°F  47°F  30.10"
Thu 01:00 AM  50.5°F  52°F  4 mph SE  1 mph  8 mph  0.00"  97%  87%  50°F  48°F  30.09"
Thu 12:00 AM  52.1°F  53°F  3 mph S  1 mph  11 mph  0.01"  95%  86%  51°F  48°F  30.09"
Wed 11:00 PM  52.0°F  54°F  4 mph SE  2 mph  11 mph  0.00"  96%  84%  51°F  49°F  30.08"
Wed 10:00 PM  53.4°F  55°F  3 mph S  2 mph  9 mph  0.00"  91%  82%  51°F  49°F  30.09"
Wed 09:00 PM  54.0°F  56°F  3 mph S  3 mph  10 mph  0.00"  90%  80%  51°F  50°F  30.08"
Wed 08:00 PM  55.1°F  58°F  1 mph S  4 mph  17 mph  0.00"  87%  74%  51°F  50°F  30.06"
Wed 07:00 PM  56.8°F  62°F  6 mph SW  5 mph  23 mph  0.00"  78%  66%  50°F  50°F  30.04"
Wed 06:00 PM  59.1°F  65°F  9 mph S  7 mph  23 mph  0.00"  71%  57%  49°F  49°F  30.02"
Wed 05:00 PM  60.4°F  68°F  12 mph S  7 mph  23 mph  0.00"  74%  52%  52°F  49°F  30.01"
Wed 04:00 PM  63.4°F  69°F  13 mph S  7 mph  20 mph  0.00"  64%  48%  51°F  48°F  30.03"
Wed 03:00 PM  63.4°F  70°F  10 mph S  6 mph  21 mph  0.00"  65%  47%  51°F  48°F  30.04"
Wed 02:00 PM  62.6°F  69°F  11 mph S  5 mph  17 mph  0.00"  68%  47%  51°F  47°F  30.08"
Wed 01:00 PM  63.4°F  68°F  8 mph S  5 mph  19 mph  0.00"  62%  49%  50°F  47°F  30.10"
Wed 12:00 PM  63.5°F  66°F  8 mph S  5 mph  17 mph  0.00"  72%  54%  54°F  48°F  30.11"
Wed 11:00 AM  61.6°F  62°F  10 mph S  3 mph  14 mph  0.00"  84%  62%  57°F  49°F  30.12"
Wed 10:00 AM  59.4°F  59°F  4 mph S  3 mph  9 mph  0.00"  94%  71%  58°F  49°F  30.12"
Wed 09:00 AM  57.6°F  55°F  2 mph S  2 mph  10 mph  0.00"  98%  81%  57°F  49°F  30.12"
Wed 08:00 AM  56.9°F  51°F  2 mph S  1 mph  6 mph  0.00"  99%  87%  56°F  47°F  30.11"
Wed 07:00 AM  56.5°F  49°F  calm  1 mph  5 mph  0.00"  98%  89%  56°F  46°F  30.11"
Wed 06:00 AM  56.6°F  50°F  calm  1 mph  none  0.00"  98%  88%  56°F  47°F  30.10"
Wed 05:00 AM  56.4°F  50°F  calm  1 mph  4 mph  0.00"  98%  88%  56°F  47°F  30.10"
Wed 04:00 AM  56.3°F  51°F  calm  1 mph  5 mph  0.01"  98%  87%  56°F  47°F  30.10"
Wed 03:00 AM  56.2°F  51°F  calm  1 mph  6 mph  0.00"  98%  87%  56°F  47°F  30.11"
Wed 02:00 AM  56.2°F  52°F  1 mph SW  1 mph  8 mph  0.00"  98%  86%  56°F  48°F  30.13"
Wed 01:00 AM  56.1°F  52°F  2 mph SW  1 mph  7 mph  0.00"  98%  85%  56°F  48°F  30.14"
Wed 12:00 AM  56.4°F  53°F  2 mph SW  1 mph  7 mph  0.08"  98%  84%  56°F  48°F  30.14"

  1. Current weather data. No green row appears if the current weather data is also the high or low for the current day.
  2. High temperature for the current day.
  3. Low temperature for the current day.

The French Valley, California weather pages are a service of WeatherCurrents. French Valley is located in southwestern Riverside County, California, north of Temecula, east of Murrieta, and south of Winchester. French Valley is bordered by Lake Skinner.
Copyright ©Thu Mar 23 11:29:20 PDT 2017  WeatherCurrents. All rights reserved. - Submit questions and comments - Privacy Policy

This page automatically refreshes every 10 minutes.